Time;durP1;ratioP1;P1;durP2;ratioP2;P2;SDS_P1;SDS_P2;PMS_P1;PMS_P2;Temp;Humidity;BMP_temperature;BMP_pressure;BME280_temperature;BME280_humidity;BME280_pressure;Samples;Min_cycle;Max_cycle;Signal;HPM_P1;HPM_P2
2022/07/22 00:01:30;;;;;;;13.90;10.90;;;23.90;41.80;;;;;;5005606;28;20635;-70
2022/07/22 00:03:57;;;;;;;13.40;10.70;;;24.00;41.30;;;;;;5010961;28;20187;-69
2022/07/22 00:06:22;;;;;;;15.50;11.77;;;23.90;40.70;;;;;;4996107;28;20184;-70
2022/07/22 00:08:48;;;;;;;14.37;10.93;;;24.20;39.80;;;;;;4994734;28;20446;-70
2022/07/22 00:11:14;;;;;;;12.50;10.70;;;24.30;39.70;;;;;;4995761;28;20192;-70
2022/07/22 00:13:39;;;;;;;15.50;11.10;;;24.20;40.80;;;;;;5008006;28;20199;-70
2022/07/22 00:16:06;;;;;;;15.50;10.20;;;24.20;41.30;;;;;;4990847;28;20262;-70
2022/07/22 00:18:32;;;;;;;14.37;11.37;;;24.10;40.70;;;;;;4985654;28;20180;-70
2022/07/22 00:20:57;;;;;;;14.90;11.97;;;24.00;42.00;;;;;;4999060;28;20449;-70
2022/07/22 00:23:23;;;;;;;14.23;11.53;;;24.00;41.80;;;;;;5005886;28;20231;-70
2022/07/22 00:25:48;;;;;;;24.63;11.67;;;23.90;42.80;;;;;;5007925;28;20173;-69
2022/07/22 00:28:14;;;;;;;17.13;11.17;;;23.90;42.20;;;;;;4994670;28;20208;-70
2022/07/22 00:30:40;;;;;;;13.10;11.20;;;23.60;42.80;;;;;;4995455;28;20184;-70
2022/07/22 00:33:05;;;;;;;13.67;11.50;;;23.60;43.40;;;;;;5000339;28;20579;-70
2022/07/22 00:35:31;;;;;;;15.90;11.97;;;23.40;43.20;;;;;;5008950;28;20293;-70
2022/07/22 00:37:57;;;;;;;20.77;12.00;;;23.10;44.50;;;;;;4999495;28;20198;-70
2022/07/22 00:40:22;;;;;;;17.57;12.00;;;23.40;44.80;;;;;;4992055;28;20556;-70
2022/07/22 00:42:49;;;;;;;19.40;12.50;;;23.40;44.40;;;;;;4998981;28;20569;-70
2022/07/22 00:45:14;;;;;;;17.73;11.40;;;23.40;44.20;;;;;;5010316;28;20181;-70
2022/07/22 00:47:40;;;;;;;21.63;11.33;;;23.50;43.50;;;;;;4999065;28;20435;-70
2022/07/22 00:50:06;;;;;;;15.77;11.50;;;23.50;43.80;;;;;;4995188;28;20181;-70
2022/07/22 00:52:33;;;;;;;16.70;12.03;;;23.60;43.20;;;;;;4998807;28;20238;-70
2022/07/22 00:55:00;;;;;;;14.43;11.10;;;23.70;42.20;;;;;;5010250;28;20521;-70
2022/07/22 00:57:26;;;;;;;14.83;11.30;;;23.80;40.70;;;;;;5012132;28;20961;-70
2022/07/22 00:59:51;;;;;;;15.80;11.87;;;23.70;41.00;;;;;;4992813;28;20442;-69
2022/07/22 01:02:17;;;;;;;14.90;11.70;;;23.80;41.30;;;;;;4988649;28;20457;-70
2022/07/22 01:04:43;;;;;;;18.60;11.00;;;23.70;41.50;;;;;;4998600;28;20184;-70
2022/07/22 01:07:09;;;;;;;16.17;11.03;;;23.90;40.50;;;;;;4993544;28;20171;-70
2022/07/22 01:09:34;;;;;;;16.03;11.77;;;23.70;42.40;;;;;;4982098;28;20196;-70
2022/07/22 01:12:01;;;;;;;19.57;11.60;;;23.40;42.30;;;;;;4977219;28;20213;-69
2022/07/22 01:14:27;;;;;;;13.70;11.30;;;23.20;42.30;;;;;;5000635;28;20638;-70
2022/07/22 01:16:52;;;;;;;17.33;11.40;;;23.20;42.90;;;;;;4993313;28;20502;-70
2022/07/22 01:19:18;;;;;;;13.00;11.00;;;23.40;42.50;;;;;;4991813;28;20176;-70
2022/07/22 01:21:44;;;;;;;15.60;11.37;;;23.50;42.50;;;;;;4991160;28;20222;-70
2022/07/22 01:24:09;;;;;;;15.60;10.50;;;23.40;42.40;;;;;;4986812;28;20448;-70
2022/07/22 01:26:35;;;;;;;13.77;10.90;;;23.30;43.10;;;;;;4991357;28;20186;-70
2022/07/22 01:29:01;;;;;;;17.37;12.30;;;23.20;43.00;;;;;;4993350;28;20617;-70
2022/07/22 01:31:27;;;;;;;14.80;11.47;;;23.00;43.70;;;;;;4996749;28;20205;-69
2022/07/22 01:33:53;;;;;;;18.30;11.90;;;23.00;44.50;;;;;;4986581;28;20198;-69
2022/07/22 01:36:19;;;;;;;15.93;10.70;;;22.80;44.30;;;;;;4996929;28;20453;-70
2022/07/22 01:38:45;;;;;;;14.63;11.53;;;22.90;44.50;;;;;;5007302;28;20846;-70
2022/07/22 01:41:11;;;;;;;18.23;11.77;;;23.00;44.40;;;;;;4993911;28;20174;-70
2022/07/22 01:43:37;;;;;;;13.57;10.60;;;23.00;44.50;;;;;;4985861;28;20553;-69
2022/07/22 01:46:03;;;;;;;17.37;10.97;;;23.20;42.80;;;;;;4992684;28;20177;-70
2022/07/22 01:48:29;;;;;;;15.83;11.10;;;23.10;43.10;;;;;;4993024;28;20191;-70
2022/07/22 01:50:54;;;;;;;17.80;11.70;;;23.00;43.80;;;;;;4988985;28;20431;-72
2022/07/22 01:53:20;;;;;;;16.60;11.87;;;23.00;44.50;;;;;;5003701;28;20543;-70
2022/07/22 01:55:46;;;;;;;17.23;12.67;;;23.20;44.60;;;;;;5012408;28;20654;-70
2022/07/22 01:58:11;;;;;;;15.77;12.10;;;23.00;45.50;;;;;;5012673;28;20169;-70
2022/07/22 02:00:37;;;;;;;15.53;12.30;;;22.70;45.40;;;;;;5005510;28;20175;-69
2022/07/22 02:03:04;;;;;;;16.97;12.40;;;22.20;46.70;;;;;;4998876;28;20208;-71
2022/07/22 02:05:29;;;;;;;22.03;13.23;;;22.00;48.60;;;;;;4999141;28;20204;-70
2022/07/22 02:08:04;;;;;;;15.77;12.40;;;22.20;47.50;;;;;;5008961;28;20418;-69
2022/07/22 02:10:30;;;;;;;20.70;12.90;;;22.40;48.10;;;;;;5012231;28;20169;-70
2022/07/22 02:12:57;;;;;;;19.00;13.97;;;22.60;47.70;;;;;;4980961;28;20549;-70
2022/07/22 02:15:23;;;;;;;18.47;14.57;;;22.60;47.40;;;;;;4992013;28;20591;-70
2022/07/22 02:17:49;;;;;;;25.13;18.03;;;22.70;46.40;;;;;;4986753;28;20483;-70
2022/07/22 02:20:15;;;;;;;28.57;20.10;;;22.60;46.00;;;;;;5002234;28;20876;-70
2022/07/22 02:22:41;;;;;;;27.90;20.13;;;22.60;46.50;;;;;;5009044;28;20188;-70
2022/07/22 02:25:07;;;;;;;30.67;21.03;;;22.80;45.90;;;;;;4997002;28;20230;-70
2022/07/22 02:27:32;;;;;;;28.30;19.90;;;22.40;46.20;;;;;;5005343;28;20189;-71
2022/07/22 02:29:58;;;;;;;22.07;19.07;;;22.50;46.30;;;;;;4991620;28;20478;-69
2022/07/22 02:32:24;;;;;;;24.37;16.50;;;22.40;47.30;;;;;;4991460;28;20747;-70
2022/07/22 02:34:49;;;;;;;22.80;14.83;;;22.40;48.00;;;;;;4994386;28;20211;-70
2022/07/22 02:37:15;;;;;;;18.67;13.07;;;22.30;48.10;;;;;;5003886;28;20183;-70
2022/07/22 02:39:40;;;;;;;26.73;12.30;;;22.20;47.90;;;;;;4994160;28;20190;-70
2022/07/22 02:42:06;;;;;;;14.60;12.03;;;22.10;49.00;;;;;;5011236;28;20827;-69
2022/07/22 02:44:32;;;;;;;18.43;11.10;;;22.30;48.00;;;;;;5002779;28;20194;-70
2022/07/22 02:46:57;;;;;;;14.30;11.90;;;22.30;48.40;;;;;;5003521;28;20183;-70
2022/07/22 02:49:23;;;;;;;16.60;11.60;;;22.30;47.40;;;;;;4992234;28;20213;-70
2022/07/22 02:51:48;;;;;;;22.20;13.37;;;22.40;46.10;;;;;;5003492;28;20244;-70
2022/07/22 02:54:14;;;;;;;17.60;12.70;;;22.50;46.80;;;;;;5014429;28;20570;-70
2022/07/22 02:56:40;;;;;;;17.27;13.80;;;22.40;46.80;;;;;;5000250;28;20178;-70
2022/07/22 02:59:05;;;;;;;18.77;12.60;;;22.40;47.70;;;;;;4998801;28;20184;-70
2022/07/22 03:01:31;;;;;;;19.77;12.70;;;22.40;47.10;;;;;;5006716;28;20549;-70
2022/07/22 03:03:56;;;;;;;16.77;13.17;;;22.40;46.90;;;;;;4998354;28;20228;-70
2022/07/22 03:06:22;;;;;;;15.77;12.70;;;22.30;48.20;;;;;;5004015;28;20198;-70
2022/07/22 03:08:48;;;;;;;14.57;12.10;;;22.30;47.90;;;;;;4997311;28;20878;-70
2022/07/22 03:11:13;;;;;;;17.40;13.00;;;22.30;48.80;;;;;;4998709;28;20187;-70
2022/07/22 03:13:39;;;;;;;18.07;12.60;;;22.30;47.00;;;;;;4995551;28;20558;-70
2022/07/22 03:16:04;;;;;;;16.10;12.47;;;22.20;47.90;;;;;;4995797;28;20214;-70
2022/07/22 03:18:30;;;;;;;15.77;11.77;;;22.40;47.80;;;;;;4995634;28;20180;-70
2022/07/22 03:20:56;;;;;;;15.00;11.80;;;22.60;46.20;;;;;;5001309;28;20187;-71
2022/07/22 03:23:21;;;;;;;20.03;12.63;;;22.40;46.50;;;;;;4998933;28;20200;-70
2022/07/22 03:25:47;;;;;;;17.10;12.07;;;22.40;47.60;;;;;;4996312;28;20654;-70
2022/07/22 03:28:13;;;;;;;19.07;12.70;;;22.30;48.10;;;;;;4976094;28;20170;-70
2022/07/22 03:30:38;;;;;;;27.20;12.17;;;21.90;46.90;;;;;;4977964;28;20212;-70
2022/07/22 03:33:04;;;;;;;17.60;12.20;;;22.30;46.60;;;;;;5000262;28;20288;-70
2022/07/22 03:35:30;;;;;;;16.40;12.60;;;22.30;47.40;;;;;;5022003;23;20363;-72
2022/07/22 03:37:55;;;;;;;17.47;12.23;;;22.30;48.20;;;;;;4992628;28;20181;-74
2022/07/22 03:40:21;;;;;;;20.40;13.20;;;22.10;48.20;;;;;;4994382;28;20193;-72
2022/07/22 03:42:47;;;;;;;22.10;12.60;;;22.10;48.10;;;;;;4993264;28;20178;-72
2022/07/22 03:45:12;;;;;;;31.80;13.13;;;21.90;48.20;;;;;;4993702;28;20210;-73
2022/07/22 03:47:38;;;;;;;21.33;12.97;;;21.90;49.60;;;;;;4994674;28;20230;-72
2022/07/22 03:50:04;;;;;;;25.60;13.73;;;22.10;47.80;;;;;;4994860;28;20176;-74
2022/07/22 03:52:31;;;;;;;19.10;13.60;;;22.00;48.80;;;;;;4992368;28;20616;-72
2022/07/22 03:54:56;;;;;;;16.67;11.97;;;21.90;48.60;;;;;;4994376;28;20561;-72
2022/07/22 03:57:22;;;;;;;18.30;12.90;;;22.00;49.60;;;;;;4993892;28;20555;-73
2022/07/22 03:59:48;;;;;;;19.97;13.00;;;22.00;48.90;;;;;;4994416;28;20174;-77
2022/07/22 04:02:14;;;;;;;30.80;14.53;;;21.80;48.30;;;;;;4992505;28;20233;-72
2022/07/22 04:04:40;;;;;;;23.87;13.43;;;21.80;47.80;;;;;;4994299;28;20590;-72
2022/07/22 04:07:05;;;;;;;24.80;14.20;;;21.80;48.50;;;;;;4994213;28;20418;-72
2022/07/22 04:09:31;;;;;;;16.10;12.60;;;21.70;48.40;;;;;;4993866;28;20198;-72
2022/07/22 04:11:57;;;;;;;19.80;13.00;;;21.90;48.20;;;;;;4993652;28;20642;-73
2022/07/22 04:14:22;;;;;;;20.00;12.93;;;21.40;48.90;;;;;;4992722;28;20215;-72
2022/07/22 04:16:48;;;;;;;16.43;12.73;;;21.30;50.40;;;;;;4994063;28;20185;-72
2022/07/22 04:19:14;;;;;;;39.87;15.20;;;21.20;49.70;;;;;;4994400;28;20220;-72
2022/07/22 04:21:40;;;;;;;29.83;17.80;;;21.00;52.30;;;;;;4993949;28;20900;-72
2022/07/22 04:24:06;;;;;;;30.77;22.60;;;20.90;51.50;;;;;;4992986;28;20445;-72
2022/07/22 04:26:32;;;;;;;24.93;19.50;;;21.00;51.60;;;;;;4994087;28;20867;-72
2022/07/22 04:28:58;;;;;;;28.13;21.43;;;21.20;51.70;;;;;;4992440;28;20462;-72
2022/07/22 04:31:23;;;;;;;28.83;19.90;;;21.20;50.60;;;;;;4993763;28;20516;-72
2022/07/22 04:33:49;;;;;;;30.97;17.70;;;21.30;50.40;;;;;;4989199;28;20216;-72
2022/07/22 04:36:15;;;;;;;36.17;16.87;;;21.30;50.70;;;;;;4983993;28;20309;-72
2022/07/22 04:38:41;;;;;;;26.17;16.80;;;21.30;50.00;;;;;;4994209;28;20173;-72
2022/07/22 04:41:06;;;;;;;21.80;16.40;;;21.30;48.80;;;;;;4992581;28;20191;-72
2022/07/22 04:43:32;;;;;;;29.67;16.80;;;21.20;51.00;;;;;;4992724;28;20182;-72
2022/07/22 04:45:58;;;;;;;22.67;15.10;;;21.20;50.80;;;;;;4993610;28;20204;-75
2022/07/22 04:48:24;;;;;;;21.43;14.67;;;21.30;50.10;;;;;;4992750;28;20435;-72
2022/07/22 04:50:49;;;;;;;22.30;14.90;;;21.50;49.90;;;;;;4993269;28;20178;-74
2022/07/22 04:53:15;;;;;;;26.17;14.03;;;21.60;48.40;;;;;;4993389;28;20171;-72
2022/07/22 04:55:41;;;;;;;19.47;13.60;;;21.40;48.90;;;;;;4992810;28;20754;-72
2022/07/22 04:58:07;;;;;;;23.43;14.13;;;21.40;49.30;;;;;;4990214;28;20650;-72
2022/07/22 05:00:32;;;;;;;21.77;14.10;;;21.60;48.50;;;;;;4993798;28;20177;-72
2022/07/22 05:02:58;;;;;;;16.80;13.60;;;21.90;48.90;;;;;;4993078;28;20998;-74
2022/07/22 05:05:24;;;;;;;19.10;13.60;;;;;;;;;;4992343;28;20210;-74
2022/07/22 05:07:50;;;;;;;22.60;14.50;;;21.10;51.70;;;;;;4973455;28;20278;-75
2022/07/22 05:10:16;;;;;;;21.83;13.70;;;;;;;;;;4992964;28;20997;-73
2022/07/22 05:12:41;;;;;;;22.00;14.83;;;22.00;49.40;;;;;;4992366;28;20192;-72
2022/07/22 05:15:07;;;;;;;23.23;14.97;;;22.10;47.50;;;;;;4992906;28;20475;-72
2022/07/22 05:17:34;;;;;;;22.13;13.43;;;22.20;48.40;;;;;;4992460;28;20180;-75
2022/07/22 05:20:02;;;;;;;25.70;13.90;;;22.30;46.90;;;;;;4993025;28;20448;-72
2022/07/22 05:22:28;;;;;;;20.90;14.47;;;22.30;47.30;;;;;;4991143;28;20499;-73
2022/07/22 05:24:54;;;;;;;24.73;15.43;;;22.30;46.00;;;;;;4992844;28;20955;-72
2022/07/22 05:27:19;;;;;;;22.73;15.60;;;22.20;46.30;;;;;;4992948;28;20206;-72
2022/07/22 05:29:45;;;;;;;21.80;15.07;;;22.30;47.30;;;;;;4992105;28;20188;-72
2022/07/22 05:32:11;;;;;;;22.57;15.03;;;22.30;48.00;;;;;;4991412;28;20273;-72
2022/07/22 05:34:36;;;;;;;24.73;15.97;;;22.80;45.50;;;;;;4992539;28;20243;-75
2022/07/22 05:37:02;;;;;;;27.00;18.03;;;22.80;45.20;;;;;;4991510;28;20223;-72
2022/07/22 05:39:28;;;;;;;29.27;17.33;;;22.70;43.60;;;;;;4982193;28;20197;-72
2022/07/22 05:41:53;;;;;;;25.23;17.17;;;22.70;43.90;;;;;;4991943;28;20763;-72
2022/07/22 05:44:19;;;;;;;21.40;15.07;;;22.90;43.80;;;;;;4991471;28;20563;-72
2022/07/22 05:46:44;;;;;;;30.03;16.37;;;22.50;43.60;;;;;;4992072;28;20184;-72
2022/07/22 05:49:10;;;;;;;25.57;16.33;;;22.50;44.80;;;;;;4992256;28;20213;-72
2022/07/22 05:51:36;;;;;;;23.00;17.23;;;22.40;44.60;;;;;;4986285;28;20273;-72
2022/07/22 05:54:02;;;;;;;32.50;17.40;;;22.40;44.70;;;;;;4991505;28;20560;-72
2022/07/22 05:56:28;;;;;;;23.30;16.43;;;22.30;44.50;;;;;;4976843;28;20196;-71
2022/07/22 05:58:55;;;;;;;24.40;18.13;;;22.70;43.60;;;;;;4990425;28;20515;-72
2022/07/22 06:01:22;;;;;;;23.93;17.10;;;21.90;46.40;;;;;;4991890;28;20779;-74
2022/07/22 06:03:48;;;;;;;40.13;19.27;;;21.90;48.50;;;;;;4990780;28;21038;-73
2022/07/22 06:06:14;;;;;;;28.80;20.00;;;;;;;;;;4991566;28;20472;-73
2022/07/22 06:08:39;;;;;;;35.80;18.80;;;21.80;47.50;;;;;;4991065;28;20194;-73
2022/07/22 06:11:05;;;;;;;27.70;18.30;;;;;;;;;;4991425;28;20429;-71
2022/07/22 06:13:32;;;;;;;25.10;17.10;;;22.00;47.00;;;;;;4991730;28;20680;-72
2022/07/22 06:15:58;;;;;;;26.90;17.67;;;22.00;46.90;;;;;;4989211;28;20493;-75
2022/07/22 06:18:24;;;;;;;25.83;17.10;;;22.20;45.50;;;;;;4991564;28;20431;-72
2022/07/22 06:20:49;;;;;;;25.07;17.97;;;22.20;46.10;;;;;;4991748;28;20854;-72
2022/07/22 06:23:15;;;;;;;24.17;16.60;;;22.90;44.30;;;;;;4989870;28;20189;-72
2022/07/22 06:25:42;;;;;;;23.47;16.00;;;23.40;44.20;;;;;;4973800;28;20209;-72
2022/07/22 06:28:07;;;;;;;37.67;17.77;;;23.40;40.90;;;;;;4973949;28;20655;-72
2022/07/22 06:30:33;;;;;;;24.93;16.23;;;22.90;42.20;;;;;;4988755;28;20450;-72
2022/07/22 06:32:59;;;;;;;23.30;16.00;;;22.40;44.10;;;;;;4988954;28;20241;-72
2022/07/22 06:35:24;;;;;;;21.90;16.90;;;22.40;43.90;;;;;;4990282;28;20214;-72
2022/07/22 06:37:50;;;;;;;21.83;15.83;;;22.60;45.00;;;;;;4992189;28;20258;-74
2022/07/22 06:40:16;;;;;;;31.17;16.30;;;23.10;41.50;;;;;;4991764;28;20257;-73
2022/07/22 06:42:41;;;;;;;23.90;17.50;;;23.40;41.30;;;;;;4989706;28;20183;-72
2022/07/22 06:45:07;;;;;;;23.37;17.13;;;23.40;41.30;;;;;;4991281;28;20198;-72
2022/07/22 06:47:35;;;;;;;20.97;16.63;;;23.70;40.80;;;;;;4974422;28;20186;-72
2022/07/22 06:50:02;;;;;;;23.20;16.07;;;23.20;42.80;;;;;;4990766;28;20846;-73
2022/07/22 06:52:28;;;;;;;36.03;15.47;;;23.40;40.60;;;;;;4988851;28;20501;-72
2022/07/22 06:54:53;;;;;;;29.63;16.60;;;23.10;41.60;;;;;;4991336;28;20549;-72
2022/07/22 06:57:19;;;;;;;31.53;15.57;;;23.10;42.10;;;;;;4991942;28;20184;-72
2022/07/22 06:59:45;;;;;;;26.60;16.27;;;;;;;;;;4991953;28;20205;-74
2022/07/22 07:02:10;;;;;;;23.90;15.97;;;23.20;42.00;;;;;;4990081;28;20204;-74
2022/07/22 07:04:36;;;;;;;27.03;15.73;;;23.20;42.00;;;;;;4991519;28;20500;-72
2022/07/22 07:07:02;;;;;;;22.00;15.00;;;23.30;42.30;;;;;;4982841;28;20181;-72
2022/07/22 07:09:27;;;;;;;33.67;15.80;;;23.20;42.50;;;;;;4972607;28;20183;-72
2022/07/22 07:11:53;;;;;;;21.33;15.50;;;;;;;;;;4981281;28;20205;-74
2022/07/22 07:14:19;;;;;;;21.63;14.60;;;;;;;;;;4990499;28;20209;-74
2022/07/22 07:16:45;;;;;;;22.37;13.97;;;23.30;42.50;;;;;;4990982;28;21033;-72
2022/07/22 07:19:10;;;;;;;21.60;14.27;;;23.20;43.10;;;;;;4991516;28;20421;-71
2022/07/22 07:21:36;;;;;;;21.20;14.77;;;24.10;40.20;;;;;;4990864;28;20182;-72
2022/07/22 07:24:02;;;;;;;20.30;13.07;;;24.20;40.70;;;;;;4990197;28;20292;-72
2022/07/22 07:26:28;;;;;;;18.50;14.07;;;24.50;40.00;;;;;;4989588;28;20223;-73
2022/07/22 07:28:53;;;;;;;23.00;14.47;;;24.30;39.90;;;;;;4989368;28;20198;-73
2022/07/22 07:31:19;;;;;;;24.70;13.67;;;24.30;40.80;;;;;;4987900;28;20190;-71
2022/07/22 07:33:44;;;;;;;27.17;15.40;;;24.50;40.00;;;;;;4988800;28;20201;-72
2022/07/22 07:36:10;;;;;;;19.73;15.40;;;24.40;39.80;;;;;;4990786;28;20221;-72
2022/07/22 07:38:36;;;;;;;22.20;13.53;;;24.00;41.10;;;;;;4992183;28;20216;-72
2022/07/22 07:41:02;;;;;;;19.87;14.13;;;24.00;42.10;;;;;;4994412;28;20660;-75
2022/07/22 07:43:28;;;;;;;25.67;13.90;;;24.10;42.20;;;;;;4992613;28;20264;-75
2022/07/22 07:45:53;;;;;;;21.07;14.30;;;24.70;41.50;;;;;;4994702;28;20440;-73
2022/07/22 07:48:19;;;;;;;15.73;12.40;;;25.10;38.10;;;;;;4995030;28;20178;-72
2022/07/22 07:50:45;;;;;;;20.60;12.97;;;25.20;38.70;;;;;;4994447;28;20265;-72
2022/07/22 07:53:14;;;;;;;22.03;13.37;;;25.40;38.20;;;;;;4993099;28;20321;-73
2022/07/22 07:55:40;;;;;;;23.43;13.37;;;25.30;36.80;;;;;;4992293;28;20221;-75
2022/07/22 07:58:06;;;;;;;15.60;11.80;;;25.40;36.70;;;;;;4994634;28;20915;-72
2022/07/22 08:00:34;;;;;;;18.80;12.37;;;25.60;38.30;;;;;;4990552;28;20657;-72
2022/07/22 08:03:00;;;;;;;18.33;12.10;;;25.70;39.20;;;;;;4994084;28;20441;-72
2022/07/22 08:05:26;;;;;;;19.17;13.43;;;25.60;35.60;;;;;;4989933;28;20464;-72
2022/07/22 08:07:52;;;;;;;19.40;13.77;;;25.40;37.30;;;;;;4992973;28;20434;-72
2022/07/22 08:10:19;;;;;;;20.87;13.10;;;25.70;36.20;;;;;;4991580;28;20236;-72
2022/07/22 08:12:45;;;;;;;24.37;13.20;;;25.10;38.20;;;;;;4993241;28;20765;-73
2022/07/22 08:15:11;;;;;;;22.60;12.33;;;25.10;38.60;;;;;;4992822;28;20494;-73
2022/07/22 08:17:37;;;;;;;14.73;12.13;;;25.50;38.30;;;;;;4992053;28;20258;-75
2022/07/22 08:20:04;;;;;;;19.50;12.67;;;26.00;38.60;;;;;;4986103;28;20469;-73
2022/07/22 08:22:30;;;;;;;24.53;13.40;;;26.30;36.30;;;;;;4991988;28;20186;-72
2022/07/22 08:24:55;;;;;;;18.90;12.53;;;26.40;35.00;;;;;;4991154;28;20470;-72
2022/07/22 08:27:21;;;;;;;18.50;13.30;;;26.30;36.50;;;;;;4985314;28;20188;-75
2022/07/22 08:29:47;;;;;;;22.20;15.00;;;26.60;34.20;;;;;;4994443;28;20216;-75
2022/07/22 08:32:13;;;;;;;25.37;14.30;;;25.90;35.80;;;;;;4993356;28;20409;-74
2022/07/22 08:34:39;;;;;;;24.23;14.83;;;25.10;38.10;;;;;;4992705;28;20850;-73
2022/07/22 08:37:04;;;;;;;19.07;13.30;;;25.10;38.10;;;;;;4992637;28;20536;-72
2022/07/22 08:39:30;;;;;;;17.30;13.20;;;25.70;39.10;;;;;;4994121;28;20189;-73
2022/07/22 08:41:56;;;;;;;20.13;13.70;;;26.30;36.90;;;;;;4993234;28;20456;-72
2022/07/22 08:44:23;;;;;;;19.33;14.70;;;26.30;36.10;;;;;;4993675;28;20185;-73
2022/07/22 08:46:48;;;;;;;24.30;13.23;;;26.20;36.70;;;;;;4978038;28;20451;-73
2022/07/22 08:49:16;;;;;;;21.80;13.50;;;26.40;37.30;;;;;;4986316;28;20433;-73
2022/07/22 08:51:41;;;;;;;21.17;13.17;;;26.90;37.40;;;;;;4977375;28;20201;-72
2022/07/22 08:54:07;;;;;;;20.33;12.77;;;27.50;34.10;;;;;;4993182;28;20832;-74
2022/07/22 08:56:33;;;;;;;21.03;13.30;;;27.50;34.90;;;;;;4992768;28;20691;-72
2022/07/22 08:58:59;;;;;;;20.73;13.50;;;27.30;34.40;;;;;;4993403;28;20433;-73
2022/07/22 09:01:24;;;;;;;20.70;13.03;;;27.00;34.30;;;;;;4989642;28;20185;-73
2022/07/22 09:03:53;;;;;;;19.23;14.30;;;27.00;35.20;;;;;;4993370;28;20186;-74
2022/07/22 09:06:20;;;;;;;18.30;13.30;;;26.90;36.30;;;;;;4991919;28;20574;-75
2022/07/22 09:08:59;;;;;;;20.53;13.10;;;27.00;35.10;;;;;;4991334;28;20432;-75
2022/07/22 09:11:30;;;;;;;37.53;13.77;;;27.40;36.80;;;;;;4993098;28;20413;-74
2022/07/22 09:13:58;;;;;;;19.60;13.43;;;27.20;34.70;;;;;;4993184;28;20443;-74
2022/07/22 09:16:47;;;;;;;20.43;13.07;;;27.20;35.70;;;;;;4993078;28;20444;-73
2022/07/22 09:19:14;;;;;;;19.37;13.57;;;27.70;35.80;;;;;;4992322;28;20429;-73
2022/07/22 09:21:43;;;;;;;14.70;12.20;;;28.20;32.60;;;;;;4991018;28;20425;-73
2022/07/22 09:24:24;;;;;;;14.73;12.40;;;28.20;32.20;;;;;;4991176;28;20475;-74
2022/07/22 09:26:55;;;;;;;17.70;12.90;;;28.60;31.60;;;;;;4993319;28;20405;-73
2022/07/22 09:29:21;;;;;;;18.50;12.97;;;28.60;31.90;;;;;;4992280;28;20409;-73
2022/07/22 09:31:51;;;;;;;17.80;12.87;;;27.20;34.60;;;;;;4991271;28;20442;-75
2022/07/22 09:34:31;;;;;;;23.87;13.20;;;27.20;34.80;;;;;;4992827;28;20448;-74
2022/07/22 09:36:59;;;;;;;22.70;13.10;;;27.00;34.10;;;;;;4992298;28;20731;-73
2022/07/22 09:39:33;;;;;;;19.43;13.00;;;26.70;35.90;;;;;;4993108;28;20444;-73
2022/07/22 09:42:05;;;;;;;18.93;11.60;;;27.60;35.90;;;;;;4990891;28;20424;-74
2022/07/22 09:44:31;;;;;;;13.47;12.33;;;28.40;33.30;;;;;;4992651;28;20415;-73
2022/07/22 09:46:56;;;;;;;16.03;11.50;;;28.40;33.80;;;;;;4992087;28;20424;-74
2022/07/22 09:49:40;;;;;;;16.53;12.20;;;28.30;31.70;;;;;;4991828;28;20185;-74
2022/07/22 09:52:06;;;;;;;26.57;12.47;;;28.40;32.50;;;;;;4990093;28;20173;-74
2022/07/22 09:54:32;;;;;;;20.80;12.23;;;28.50;30.20;;;;;;4992388;28;20963;-75
2022/07/22 09:56:58;;;;;;;15.57;11.80;;;28.50;30.60;;;;;;4975690;28;20831;-74
2022/07/22 09:59:24;;;;;;;19.77;12.40;;;28.50;31.00;;;;;;4973129;28;20814;-73
2022/07/22 10:01:54;;;;;;;16.60;11.47;;;29.00;29.60;;;;;;4982756;28;20432;-73
2022/07/22 10:04:23;;;;;;;15.90;11.60;;;29.60;30.80;;;;;;4992127;28;20431;-73
2022/07/22 10:06:50;;;;;;;17.00;11.30;;;29.80;28.80;;;;;;4989667;28;20437;-73
2022/07/22 10:09:17;;;;;;;15.57;11.10;;;30.20;28.00;;;;;;4992070;28;20433;-74
2022/07/22 10:11:46;;;;;;;16.20;11.23;;;30.20;28.00;;;;;;4992160;28;20459;-73
2022/07/22 10:14:14;;;;;;;22.87;11.40;;;30.60;28.80;;;;;;4996466;28;20444;-73
2022/07/22 10:16:40;;;;;;;16.60;11.30;;;30.80;26.50;;;;;;4999043;28;21029;-73
2022/07/22 10:19:06;;;;;;;13.93;11.07;;;30.00;28.40;;;;;;4992304;28;20413;-73
2022/07/22 10:21:33;;;;;;;15.43;11.63;;;30.00;28.80;;;;;;4989242;28;20974;-74
2022/07/22 10:24:12;;;;;;;12.13;10.87;;;30.50;27.90;;;;;;4973279;28;20418;-74
2022/07/22 10:26:56;;;;;;;13.47;10.37;;;31.00;26.80;;;;;;4987385;28;20480;-75
2022/07/22 10:29:27;;;;;;;20.93;10.20;;;31.20;26.20;;;;;;4982545;28;20952;-73
2022/07/22 10:32:16;;;;;;;23.73;11.20;;;31.30;26.60;;;;;;4991460;28;20471;-74
2022/07/22 10:34:43;;;;;;;18.17;10.47;;;31.70;25.90;;;;;;4990844;28;20473;-74
2022/07/22 10:37:35;;;;;;;15.53;10.90;;;31.70;25.70;;;;;;4991693;28;20901;-74
2022/07/22 10:40:20;;;;;;;14.13;10.67;;;31.70;26.40;;;;;;4987418;28;20773;-75
2022/07/22 10:43:00;;;;;;;16.50;9.90;;;31.60;26.80;;;;;;4990574;28;20473;-74
2022/07/22 10:45:38;;;;;;;23.50;10.97;;;31.90;25.50;;;;;;4991686;28;20425;-74
2022/07/22 10:48:07;;;;;;;10.73;10.03;;;32.20;25.60;;;;;;4991905;28;20397;-74
2022/07/22 10:50:36;;;;;;;18.57;10.73;;;31.70;25.80;;;;;;4974366;28;20416;-73
2022/07/22 10:53:07;;;;;;;16.83;10.07;;;31.50;25.00;;;;;;4990776;28;20416;-73
2022/07/22 10:55:33;;;;;;;15.43;9.90;;;31.80;24.90;;;;;;4991746;28;20465;-73
2022/07/22 10:57:58;;;;;;;13.70;9.80;;;31.90;26.40;;;;;;4991853;28;20405;-74
2022/07/22 11:00:25;;;;;;;13.23;10.23;;;32.00;24.10;;;;;;4991747;28;20491;-73
2022/07/22 11:02:50;;;;;;;13.43;10.63;;;32.00;26.20;;;;;;4990668;28;20170;-75
2022/07/22 11:05:28;;;;;;;15.27;9.97;;;32.40;23.70;;;;;;4991050;28;20518;-73
2022/07/22 11:07:54;;;;;;;13.73;10.20;;;32.00;24.40;;;;;;4987286;28;20272;-74
2022/07/22 11:10:20;;;;;;;18.47;10.47;;;31.70;26.10;;;;;;4989868;28;20504;-74
2022/07/22 11:12:47;;;;;;;47.27;11.83;;;32.20;25.50;;;;;;4991641;28;20209;-75
2022/07/22 11:15:13;;;;;;;18.60;10.50;;;32.30;23.90;;;;;;4991159;28;20523;-74
2022/07/22 11:17:39;;;;;;;17.60;9.30;;;32.70;23.70;;;;;;4991834;28;20436;-74
2022/07/22 11:20:09;;;;;;;11.40;9.50;;;33.10;23.30;;;;;;4993367;28;20178;-73
2022/07/22 11:22:35;;;;;;;12.90;9.53;;;33.10;24.50;;;;;;4992586;28;20432;-74
2022/07/22 11:25:03;;;;;;;14.17;9.70;;;33.30;23.30;;;;;;4988056;28;20452;-74
2022/07/22 11:27:29;;;;;;;12.07;9.50;;;33.60;21.20;;;;;;4992006;28;20853;-74
2022/07/22 11:29:56;;;;;;;17.33;9.40;;;33.40;21.90;;;;;;4992981;28;20447;-74
2022/07/22 11:32:23;;;;;;;18.80;9.27;;;33.70;22.20;;;;;;4985609;28;20605;-74
2022/07/22 11:34:49;;;;;;;13.67;9.60;;;34.20;21.40;;;;;;4993901;28;20475;-74
2022/07/22 11:37:16;;;;;;;11.93;8.90;;;35.10;20.60;;;;;;4992559;28;20524;-74
2022/07/22 11:39:42;;;;;;;15.50;9.60;;;35.70;18.60;;;;;;4992771;28;20268;-75
2022/07/22 11:42:08;;;;;;;15.00;8.70;;;35.60;19.10;;;;;;4991936;28;20531;-74
2022/07/22 11:44:36;;;;;;;10.33;8.07;;;36.00;17.00;;;;;;4992980;28;20916;-74
2022/07/22 11:47:03;;;;;;;16.13;10.30;;;35.90;17.70;;;;;;4994197;28;20174;-74
2022/07/22 11:49:33;;;;;;;11.27;8.30;;;35.50;19.90;;;;;;4994966;28;20425;-74
2022/07/22 11:51:59;;;;;;;12.03;9.27;;;36.10;18.10;;;;;;4993048;28;20952;-72
2022/07/22 11:54:25;;;;;;;14.20;7.97;;;36.80;16.00;;;;;;4988845;28;20515;-72
2022/07/22 11:56:51;;;;;;;11.03;8.23;;;36.80;16.50;;;;;;4992658;28;20519;-72
2022/07/22 11:59:17;;;;;;;19.03;8.50;;;36.00;16.30;;;;;;4993576;28;20193;-74
2022/07/22 12:01:45;;;;;;;10.30;8.10;;;35.80;18.50;;;;;;4993837;28;20185;-71
2022/07/22 12:04:13;;;;;;;10.93;8.63;;;36.50;17.20;;;;;;4993190;28;20486;-74
2022/07/22 12:06:41;;;;;;;16.93;8.50;;;36.60;16.20;;;;;;4984437;28;20809;-74
2022/07/22 12:09:07;;;;;;;10.70;8.13;;;35.90;18.60;;;;;;4994391;28;21091;-74
2022/07/22 12:11:35;;;;;;;13.50;8.10;;;36.50;18.70;;;;;;4989706;28;20892;-76
2022/07/22 12:14:16;;;;;;;14.93;8.40;;;36.70;17.80;;;;;;4975616;28;20950;-74
2022/07/22 12:16:52;;;;;;;12.93;8.17;;;36.40;16.30;;;;;;4989279;28;20802;-74
2022/07/22 12:19:18;;;;;;;14.53;7.83;;;35.40;17.30;;;;;;4993503;28;20512;-74
2022/07/22 12:21:51;;;;;;;14.33;8.47;;;34.90;19.60;;;;;;4992791;28;20540;-76
2022/07/22 12:24:26;;;;;;;11.73;7.77;;;36.50;17.50;;;;;;4992795;28;20665;-75
2022/07/22 12:26:52;;;;;;;11.90;8.03;;;36.80;15.20;;;;;;4993380;28;20443;-74
2022/07/22 12:29:18;;;;;;;13.00;8.33;;;36.50;15.00;;;;;;4994298;28;20424;-74